sensor_id;sensor_type;location;lat;lon;timestamp;P1;durP1;ratioP1;P2;durP2;ratioP2
5499;SDS011;2772;42.700;23.304;2023-08-21T00:00:07;9.60;;;8.60;;
5499;SDS011;2772;42.700;23.304;2023-08-21T00:02:36;11.60;;;9.73;;
5499;SDS011;2772;42.700;23.304;2023-08-21T00:05:03;10.13;;;8.77;;
5499;SDS011;2772;42.700;23.304;2023-08-21T00:07:30;11.83;;;8.93;;
5499;SDS011;2772;42.700;23.304;2023-08-21T00:09:56;13.30;;;9.90;;
5499;SDS011;2772;42.700;23.304;2023-08-21T00:12:23;13.30;;;9.10;;
5499;SDS011;2772;42.700;23.304;2023-08-21T00:14:50;11.10;;;8.80;;
5499;SDS011;2772;42.700;23.304;2023-08-21T00:17:16;17.13;;;8.37;;
5499;SDS011;2772;42.700;23.304;2023-08-21T00:19:45;10.40;;;8.80;;
5499;SDS011;2772;42.700;23.304;2023-08-21T00:22:11;10.87;;;9.40;;
5499;SDS011;2772;42.700;23.304;2023-08-21T00:24:38;14.03;;;9.93;;
5499;SDS011;2772;42.700;23.304;2023-08-21T00:27:05;12.00;;;9.10;;
5499;SDS011;2772;42.700;23.304;2023-08-21T00:29:32;10.23;;;8.87;;
5499;SDS011;2772;42.700;23.304;2023-08-21T00:31:58;13.77;;;10.13;;
5499;SDS011;2772;42.700;23.304;2023-08-21T00:34:25;15.57;;;9.50;;
5499;SDS011;2772;42.700;23.304;2023-08-21T00:36:53;10.80;;;9.53;;
5499;SDS011;2772;42.700;23.304;2023-08-21T00:39:20;11.00;;;9.47;;
5499;SDS011;2772;42.700;23.304;2023-08-21T00:41:47;11.37;;;9.37;;
5499;SDS011;2772;42.700;23.304;2023-08-21T00:44:13;12.27;;;8.50;;
5499;SDS011;2772;42.700;23.304;2023-08-21T00:46:40;18.97;;;9.37;;
5499;SDS011;2772;42.700;23.304;2023-08-21T00:49:07;9.93;;;8.87;;
5499;SDS011;2772;42.700;23.304;2023-08-21T00:51:35;9.77;;;8.87;;
5499;SDS011;2772;42.700;23.304;2023-08-21T00:54:04;11.73;;;9.27;;
5499;SDS011;2772;42.700;23.304;2023-08-21T00:56:30;15.53;;;9.10;;
5499;SDS011;2772;42.700;23.304;2023-08-21T00:58:57;16.87;;;9.87;;
5499;SDS011;2772;42.700;23.304;2023-08-21T01:01:24;9.77;;;8.80;;
5499;SDS011;2772;42.700;23.304;2023-08-21T01:03:51;10.30;;;9.20;;
5499;SDS011;2772;42.700;23.304;2023-08-21T01:06:18;10.10;;;8.03;;
5499;SDS011;2772;42.700;23.304;2023-08-21T01:08:48;10.93;;;9.83;;
5499;SDS011;2772;42.700;23.304;2023-08-21T01:11:24;12.87;;;9.43;;
5499;SDS011;2772;42.700;23.304;2023-08-21T01:13:58;11.00;;;9.07;;
5499;SDS011;2772;42.700;23.304;2023-08-21T01:16:33;10.10;;;8.80;;
5499;SDS011;2772;42.700;23.304;2023-08-21T01:19:01;13.97;;;8.90;;
5499;SDS011;2772;42.700;23.304;2023-08-21T01:21:29;13.33;;;9.47;;
5499;SDS011;2772;42.700;23.304;2023-08-21T01:23:58;14.50;;;9.00;;
5499;SDS011;2772;42.700;23.304;2023-08-21T01:26:25;10.80;;;9.70;;
5499;SDS011;2772;42.700;23.304;2023-08-21T01:28:51;13.27;;;9.13;;
5499;SDS011;2772;42.700;23.304;2023-08-21T01:31:21;9.17;;;8.20;;
5499;SDS011;2772;42.700;23.304;2023-08-21T01:33:53;11.00;;;9.47;;
5499;SDS011;2772;42.700;23.304;2023-08-21T01:36:23;9.53;;;8.50;;
5499;SDS011;2772;42.700;23.304;2023-08-21T01:38:51;18.10;;;9.70;;
5499;SDS011;2772;42.700;23.304;2023-08-21T01:41:20;10.20;;;9.20;;
5499;SDS011;2772;42.700;23.304;2023-08-21T01:43:49;13.03;;;9.97;;
5499;SDS011;2772;42.700;23.304;2023-08-21T01:46:16;12.90;;;8.70;;
5499;SDS011;2772;42.700;23.304;2023-08-21T01:48:43;11.60;;;9.67;;
5499;SDS011;2772;42.700;23.304;2023-08-21T01:51:10;11.90;;;9.77;;
5499;SDS011;2772;42.700;23.304;2023-08-21T01:53:37;11.17;;;9.03;;
5499;SDS011;2772;42.700;23.304;2023-08-21T01:56:03;9.97;;;8.40;;
5499;SDS011;2772;42.700;23.304;2023-08-21T01:58:31;12.53;;;9.07;;
5499;SDS011;2772;42.700;23.304;2023-08-21T02:00:58;10.27;;;9.23;;
5499;SDS011;2772;42.700;23.304;2023-08-21T02:03:25;9.30;;;8.40;;
5499;SDS011;2772;42.700;23.304;2023-08-21T02:05:55;26.07;;;9.87;;
5499;SDS011;2772;42.700;23.304;2023-08-21T02:08:22;10.13;;;9.00;;
5499;SDS011;2772;42.700;23.304;2023-08-21T02:10:49;11.70;;;10.00;;
5499;SDS011;2772;42.700;23.304;2023-08-21T02:13:16;10.50;;;9.40;;
5499;SDS011;2772;42.700;23.304;2023-08-21T02:15:45;18.00;;;10.10;;
5499;SDS011;2772;42.700;23.304;2023-08-21T02:18:12;17.30;;;10.90;;
5499;SDS011;2772;42.700;23.304;2023-08-21T02:20:39;14.70;;;10.37;;
5499;SDS011;2772;42.700;23.304;2023-08-21T02:23:05;14.03;;;10.30;;
5499;SDS011;2772;42.700;23.304;2023-08-21T02:25:32;15.93;;;9.77;;
5499;SDS011;2772;42.700;23.304;2023-08-21T02:27:59;12.63;;;10.37;;
5499;SDS011;2772;42.700;23.304;2023-08-21T02:30:27;12.17;;;10.10;;
5499;SDS011;2772;42.700;23.304;2023-08-21T02:32:55;17.00;;;9.83;;
5499;SDS011;2772;42.700;23.304;2023-08-21T02:35:22;13.63;;;9.97;;
5499;SDS011;2772;42.700;23.304;2023-08-21T02:37:49;16.10;;;10.33;;
5499;SDS011;2772;42.700;23.304;2023-08-21T02:40:16;18.17;;;11.10;;
5499;SDS011;2772;42.700;23.304;2023-08-21T02:42:43;15.90;;;10.47;;
5499;SDS011;2772;42.700;23.304;2023-08-21T02:45:09;12.00;;;10.27;;
5499;SDS011;2772;42.700;23.304;2023-08-21T02:47:36;12.97;;;10.37;;
5499;SDS011;2772;42.700;23.304;2023-08-21T02:50:05;14.97;;;10.60;;
5499;SDS011;2772;42.700;23.304;2023-08-21T02:52:33;11.73;;;10.00;;
5499;SDS011;2772;42.700;23.304;2023-08-21T02:55:00;13.13;;;10.30;;
5499;SDS011;2772;42.700;23.304;2023-08-21T02:57:28;15.53;;;10.10;;
5499;SDS011;2772;42.700;23.304;2023-08-21T02:59:55;17.47;;;10.67;;
5499;SDS011;2772;42.700;23.304;2023-08-21T03:02:22;14.30;;;10.70;;
5499;SDS011;2772;42.700;23.304;2023-08-21T03:04:49;17.83;;;10.17;;
5499;SDS011;2772;42.700;23.304;2023-08-21T03:07:17;18.00;;;10.30;;
5499;SDS011;2772;42.700;23.304;2023-08-21T03:09:45;14.80;;;10.97;;
5499;SDS011;2772;42.700;23.304;2023-08-21T03:12:13;14.13;;;10.70;;
5499;SDS011;2772;42.700;23.304;2023-08-21T03:14:40;12.90;;;10.23;;
5499;SDS011;2772;42.700;23.304;2023-08-21T03:17:07;13.07;;;10.40;;
5499;SDS011;2772;42.700;23.304;2023-08-21T03:19:34;16.13;;;10.67;;
5499;SDS011;2772;42.700;23.304;2023-08-21T03:22:01;13.07;;;10.33;;
5499;SDS011;2772;42.700;23.304;2023-08-21T03:24:29;13.90;;;9.80;;
5499;SDS011;2772;42.700;23.304;2023-08-21T03:26:56;11.63;;;9.80;;
5499;SDS011;2772;42.700;23.304;2023-08-21T03:29:22;11.00;;;9.80;;
5499;SDS011;2772;42.700;23.304;2023-08-21T03:31:49;13.57;;;10.07;;
5499;SDS011;2772;42.700;23.304;2023-08-21T03:34:16;14.73;;;10.50;;
5499;SDS011;2772;42.700;23.304;2023-08-21T03:36:43;19.50;;;10.60;;
5499;SDS011;2772;42.700;23.304;2023-08-21T03:39:10;14.90;;;11.10;;
5499;SDS011;2772;42.700;23.304;2023-08-21T03:41:38;18.47;;;11.47;;
5499;SDS011;2772;42.700;23.304;2023-08-21T03:44:05;15.30;;;12.00;;
5499;SDS011;2772;42.700;23.304;2023-08-21T03:46:31;15.67;;;10.90;;
5499;SDS011;2772;42.700;23.304;2023-08-21T03:48:58;12.57;;;11.13;;
5499;SDS011;2772;42.700;23.304;2023-08-21T03:51:25;13.27;;;10.93;;
5499;SDS011;2772;42.700;23.304;2023-08-21T03:53:52;13.00;;;10.20;;
5499;SDS011;2772;42.700;23.304;2023-08-21T03:56:18;25.17;;;12.40;;
5499;SDS011;2772;42.700;23.304;2023-08-21T03:58:47;19.23;;;11.10;;
5499;SDS011;2772;42.700;23.304;2023-08-21T04:01:14;27.50;;;12.93;;
5499;SDS011;2772;42.700;23.304;2023-08-21T04:03:41;18.30;;;10.70;;
5499;SDS011;2772;42.700;23.304;2023-08-21T04:06:08;19.43;;;12.20;;
5499;SDS011;2772;42.700;23.304;2023-08-21T04:08:35;18.57;;;12.27;;
5499;SDS011;2772;42.700;23.304;2023-08-21T04:11:01;20.53;;;12.33;;
5499;SDS011;2772;42.700;23.304;2023-08-21T04:13:28;18.60;;;11.00;;
5499;SDS011;2772;42.700;23.304;2023-08-21T04:15:56;42.13;;;28.20;;
5499;SDS011;2772;42.700;23.304;2023-08-21T04:18:23;17.60;;;12.67;;
5499;SDS011;2772;42.700;23.304;2023-08-21T04:20:50;13.63;;;11.00;;
5499;SDS011;2772;42.700;23.304;2023-08-21T04:23:17;26.73;;;18.13;;
5499;SDS011;2772;42.700;23.304;2023-08-21T04:25:44;39.13;;;25.60;;
5499;SDS011;2772;42.700;23.304;2023-08-21T04:28:10;25.77;;;18.30;;
5499;SDS011;2772;42.700;23.304;2023-08-21T04:30:39;18.27;;;12.90;;
5499;SDS011;2772;42.700;23.304;2023-08-21T04:33:07;27.67;;;18.97;;
5499;SDS011;2772;42.700;23.304;2023-08-21T04:35:36;21.00;;;14.20;;
5499;SDS011;2772;42.700;23.304;2023-08-21T04:38:03;22.37;;;14.80;;
5499;SDS011;2772;42.700;23.304;2023-08-21T04:40:30;20.50;;;13.43;;
5499;SDS011;2772;42.700;23.304;2023-08-21T04:42:57;20.70;;;13.87;;
5499;SDS011;2772;42.700;23.304;2023-08-21T04:45:24;20.65;;;12.40;;
5499;SDS011;2772;42.700;23.304;2023-08-21T04:47:51;16.73;;;10.80;;
5499;SDS011;2772;42.700;23.304;2023-08-21T04:50:19;15.97;;;8.87;;
5499;SDS011;2772;42.700;23.304;2023-08-21T04:52:46;15.67;;;10.90;;
5499;SDS011;2772;42.700;23.304;2023-08-21T04:55:14;13.73;;;10.57;;
5499;SDS011;2772;42.700;23.304;2023-08-21T04:57:41;13.27;;;10.17;;
5499;SDS011;2772;42.700;23.304;2023-08-21T05:00:08;11.60;;;8.97;;
5499;SDS011;2772;42.700;23.304;2023-08-21T05:02:35;12.93;;;9.13;;
5499;SDS011;2772;42.700;23.304;2023-08-21T05:05:02;15.77;;;10.07;;
5499;SDS011;2772;42.700;23.304;2023-08-21T05:07:32;11.77;;;9.20;;
5499;SDS011;2772;42.700;23.304;2023-08-21T05:10:01;17.97;;;10.07;;
5499;SDS011;2772;42.700;23.304;2023-08-21T05:12:29;14.23;;;10.20;;
5499;SDS011;2772;42.700;23.304;2023-08-21T05:14:56;18.23;;;9.43;;
5499;SDS011;2772;42.700;23.304;2023-08-21T05:17:23;11.07;;;8.80;;
5499;SDS011;2772;42.700;23.304;2023-08-21T05:19:50;10.93;;;9.70;;
5499;SDS011;2772;42.700;23.304;2023-08-21T05:22:17;19.27;;;11.60;;
5499;SDS011;2772;42.700;23.304;2023-08-21T05:24:45;12.27;;;9.30;;
5499;SDS011;2772;42.700;23.304;2023-08-21T05:27:12;18.00;;;11.20;;
5499;SDS011;2772;42.700;23.304;2023-08-21T05:29:39;16.97;;;10.33;;
5499;SDS011;2772;42.700;23.304;2023-08-21T05:32:06;12.80;;;10.13;;
5499;SDS011;2772;42.700;23.304;2023-08-21T05:34:32;22.10;;;11.23;;
5499;SDS011;2772;42.700;23.304;2023-08-21T05:36:59;14.60;;;10.63;;
5499;SDS011;2772;42.700;23.304;2023-08-21T05:39:26;19.77;;;10.83;;
5499;SDS011;2772;42.700;23.304;2023-08-21T05:41:54;16.07;;;10.60;;
5499;SDS011;2772;42.700;23.304;2023-08-21T05:44:21;12.87;;;10.80;;
5499;SDS011;2772;42.700;23.304;2023-08-21T05:46:48;23.60;;;10.77;;
5499;SDS011;2772;42.700;23.304;2023-08-21T05:49:15;15.13;;;11.00;;
5499;SDS011;2772;42.700;23.304;2023-08-21T05:51:41;20.80;;;11.53;;
5499;SDS011;2772;42.700;23.304;2023-08-21T05:54:08;19.83;;;12.57;;
5499;SDS011;2772;42.700;23.304;2023-08-21T05:56:35;24.30;;;11.60;;
5499;SDS011;2772;42.700;23.304;2023-08-21T05:59:03;21.30;;;11.40;;
5499;SDS011;2772;42.700;23.304;2023-08-21T06:01:30;19.33;;;12.13;;
5499;SDS011;2772;42.700;23.304;2023-08-21T06:03:57;13.17;;;11.00;;
5499;SDS011;2772;42.700;23.304;2023-08-21T06:06:24;13.50;;;11.13;;
5499;SDS011;2772;42.700;23.304;2023-08-21T06:08:51;15.20;;;10.57;;
5499;SDS011;2772;42.700;23.304;2023-08-21T06:11:18;16.23;;;9.43;;
5499;SDS011;2772;42.700;23.304;2023-08-21T06:13:45;18.27;;;12.00;;
5499;SDS011;2772;42.700;23.304;2023-08-21T06:16:18;15.27;;;10.70;;
5499;SDS011;2772;42.700;23.304;2023-08-21T06:18:46;10.87;;;9.80;;
5499;SDS011;2772;42.700;23.304;2023-08-21T06:21:13;12.40;;;9.67;;
5499;SDS011;2772;42.700;23.304;2023-08-21T06:23:43;20.97;;;9.60;;
5499;SDS011;2772;42.700;23.304;2023-08-21T06:26:10;18.63;;;10.00;;
5499;SDS011;2772;42.700;23.304;2023-08-21T06:28:37;16.83;;;13.03;;
5499;SDS011;2772;42.700;23.304;2023-08-21T06:31:03;20.60;;;11.77;;
5499;SDS011;2772;42.700;23.304;2023-08-21T06:33:33;15.80;;;11.90;;
5499;SDS011;2772;42.700;23.304;2023-08-21T06:36:00;11.90;;;10.17;;
5499;SDS011;2772;42.700;23.304;2023-08-21T06:38:27;10.87;;;9.00;;
5499;SDS011;2772;42.700;23.304;2023-08-21T06:40:54;9.80;;;8.80;;
5499;SDS011;2772;42.700;23.304;2023-08-21T06:43:21;11.27;;;9.20;;
5499;SDS011;2772;42.700;23.304;2023-08-21T06:45:47;19.07;;;10.57;;
5499;SDS011;2772;42.700;23.304;2023-08-21T06:48:14;18.73;;;10.20;;
5499;SDS011;2772;42.700;23.304;2023-08-21T06:50:42;19.40;;;9.60;;
5499;SDS011;2772;42.700;23.304;2023-08-21T06:53:09;15.17;;;9.77;;
5499;SDS011;2772;42.700;23.304;2023-08-21T06:55:36;11.80;;;9.17;;
5499;SDS011;2772;42.700;23.304;2023-08-21T06:58:16;12.10;;;9.17;;
5499;SDS011;2772;42.700;23.304;2023-08-21T07:00:43;11.60;;;9.97;;
5499;SDS011;2772;42.700;23.304;2023-08-21T07:03:10;17.77;;;9.23;;
5499;SDS011;2772;42.700;23.304;2023-08-21T07:05:41;13.60;;;9.50;;
5499;SDS011;2772;42.700;23.304;2023-08-21T07:08:21;19.47;;;9.20;;
5499;SDS011;2772;42.700;23.304;2023-08-21T07:10:48;12.60;;;8.93;;
5499;SDS011;2772;42.700;23.304;2023-08-21T07:13:15;19.10;;;10.27;;
5499;SDS011;2772;42.700;23.304;2023-08-21T07:15:42;11.27;;;10.17;;
5499;SDS011;2772;42.700;23.304;2023-08-21T07:18:09;20.33;;;10.43;;
5499;SDS011;2772;42.700;23.304;2023-08-21T07:20:35;14.37;;;9.23;;
5499;SDS011;2772;42.700;23.304;2023-08-21T07:23:04;14.50;;;9.30;;
5499;SDS011;2772;42.700;23.304;2023-08-21T07:25:31;15.30;;;9.90;;
5499;SDS011;2772;42.700;23.304;2023-08-21T07:27:58;16.63;;;8.90;;
5499;SDS011;2772;42.700;23.304;2023-08-21T07:30:25;16.33;;;9.33;;
5499;SDS011;2772;42.700;23.304;2023-08-21T07:32:52;14.63;;;9.07;;
5499;SDS011;2772;42.700;23.304;2023-08-21T07:35:19;11.40;;;8.60;;
5499;SDS011;2772;42.700;23.304;2023-08-21T07:37:46;14.23;;;8.50;;
5499;SDS011;2772;42.700;23.304;2023-08-21T07:40:15;11.70;;;8.27;;
5499;SDS011;2772;42.700;23.304;2023-08-21T07:42:42;12.30;;;9.30;;
5499;SDS011;2772;42.700;23.304;2023-08-21T07:45:09;13.30;;;9.27;;
5499;SDS011;2772;42.700;23.304;2023-08-21T07:47:36;13.40;;;9.27;;
5499;SDS011;2772;42.700;23.304;2023-08-21T07:50:03;14.23;;;9.00;;
5499;SDS011;2772;42.700;23.304;2023-08-21T07:52:32;9.90;;;8.97;;
5499;SDS011;2772;42.700;23.304;2023-08-21T07:54:58;13.23;;;8.90;;
5499;SDS011;2772;42.700;23.304;2023-08-21T07:57:27;9.50;;;8.50;;
5499;SDS011;2772;42.700;23.304;2023-08-21T07:59:54;9.63;;;7.70;;
5499;SDS011;2772;42.700;23.304;2023-08-21T08:02:21;8.43;;;7.60;;
5499;SDS011;2772;42.700;23.304;2023-08-21T08:04:48;8.00;;;7.30;;
5499;SDS011;2772;42.700;23.304;2023-08-21T08:07:15;11.70;;;7.47;;
5499;SDS011;2772;42.700;23.304;2023-08-21T08:09:43;12.10;;;8.53;;
5499;SDS011;2772;42.700;23.304;2023-08-21T08:12:09;12.90;;;7.40;;
5499;SDS011;2772;42.700;23.304;2023-08-21T08:14:37;12.57;;;9.07;;
5499;SDS011;2772;42.700;23.304;2023-08-21T08:17:04;11.90;;;8.13;;
5499;SDS011;2772;42.700;23.304;2023-08-21T08:19:31;11.37;;;8.40;;
5499;SDS011;2772;42.700;23.304;2023-08-21T08:21:58;11.63;;;7.97;;
5499;SDS011;2772;42.700;23.304;2023-08-21T08:24:25;9.40;;;8.50;;
5499;SDS011;2772;42.700;23.304;2023-08-21T08:26:51;13.40;;;8.80;;
5499;SDS011;2772;42.700;23.304;2023-08-21T08:29:19;10.70;;;8.43;;
5499;SDS011;2772;42.700;23.304;2023-08-21T08:31:47;16.63;;;8.40;;
5499;SDS011;2772;42.700;23.304;2023-08-21T08:34:14;9.20;;;8.30;;
5499;SDS011;2772;42.700;23.304;2023-08-21T08:36:43;12.07;;;7.97;;
5499;SDS011;2772;42.700;23.304;2023-08-21T08:39:09;12.07;;;10.10;;
5499;SDS011;2772;42.700;23.304;2023-08-21T08:41:37;10.80;;;8.13;;
5499;SDS011;2772;42.700;23.304;2023-08-21T08:44:17;8.60;;;7.90;;
5499;SDS011;2772;42.700;23.304;2023-08-21T08:46:45;9.27;;;7.90;;
5499;SDS011;2772;42.700;23.304;2023-08-21T08:49:13;12.40;;;8.50;;
5499;SDS011;2772;42.700;23.304;2023-08-21T08:51:40;10.80;;;8.33;;
5499;SDS011;2772;42.700;23.304;2023-08-21T08:54:09;10.10;;;7.30;;
5499;SDS011;2772;42.700;23.304;2023-08-21T08:56:38;9.10;;;8.03;;
5499;SDS011;2772;42.700;23.304;2023-08-21T08:59:07;9.00;;;8.10;;
5499;SDS011;2772;42.700;23.304;2023-08-21T09:01:34;11.87;;;8.30;;
5499;SDS011;2772;42.700;23.304;2023-08-21T09:04:02;8.63;;;7.70;;
5499;SDS011;2772;42.700;23.304;2023-08-21T09:06:30;8.73;;;7.50;;
5499;SDS011;2772;42.700;23.304;2023-08-21T09:08:58;10.10;;;7.80;;
5499;SDS011;2772;42.700;23.304;2023-08-21T09:11:26;10.70;;;7.50;;
5499;SDS011;2772;42.700;23.304;2023-08-21T09:13:53;8.83;;;7.20;;
5499;SDS011;2772;42.700;23.304;2023-08-21T09:16:20;8.47;;;7.40;;
5499;SDS011;2772;42.700;23.304;2023-08-21T09:18:50;11.43;;;6.90;;
5499;SDS011;2772;42.700;23.304;2023-08-21T09:21:17;8.17;;;7.00;;
5499;SDS011;2772;42.700;23.304;2023-08-21T09:23:46;8.77;;;7.97;;
5499;SDS011;2772;42.700;23.304;2023-08-21T09:26:18;12.60;;;9.00;;
5499;SDS011;2772;42.700;23.304;2023-08-21T09:28:46;11.33;;;7.10;;
5499;SDS011;2772;42.700;23.304;2023-08-21T09:31:13;12.37;;;8.33;;
5499;SDS011;2772;42.700;23.304;2023-08-21T09:33:39;10.47;;;7.70;;
5499;SDS011;2772;42.700;23.304;2023-08-21T09:36:06;8.13;;;7.37;;
5499;SDS011;2772;42.700;23.304;2023-08-21T09:38:38;10.40;;;7.07;;
5499;SDS011;2772;42.700;23.304;2023-08-21T09:41:06;9.13;;;7.70;;
5499;SDS011;2772;42.700;23.304;2023-08-21T09:43:37;13.20;;;7.20;;
5499;SDS011;2772;42.700;23.304;2023-08-21T09:46:07;11.43;;;7.27;;
5499;SDS011;2772;42.700;23.304;2023-08-21T09:48:34;12.20;;;7.90;;
5499;SDS011;2772;42.700;23.304;2023-08-21T09:51:03;11.15;;;8.75;;
5499;SDS011;2772;42.700;23.304;2023-08-21T09:53:30;9.90;;;7.70;;
5499;SDS011;2772;42.700;23.304;2023-08-21T09:55:57;7.87;;;7.07;;
5499;SDS011;2772;42.700;23.304;2023-08-21T09:58:29;12.53;;;7.27;;
5499;SDS011;2772;42.700;23.304;2023-08-21T10:00:57;9.50;;;7.30;;
5499;SDS011;2772;42.700;23.304;2023-08-21T10:03:25;9.30;;;8.20;;
5499;SDS011;2772;42.700;23.304;2023-08-21T10:05:53;7.47;;;6.87;;
5499;SDS011;2772;42.700;23.304;2023-08-21T10:08:23;10.63;;;7.23;;
5499;SDS011;2772;42.700;23.304;2023-08-21T10:10:51;7.77;;;6.67;;
5499;SDS011;2772;42.700;23.304;2023-08-21T10:13:18;7.57;;;6.50;;
5499;SDS011;2772;42.700;23.304;2023-08-21T10:15:46;7.00;;;6.40;;
5499;SDS011;2772;42.700;23.304;2023-08-21T10:18:20;7.00;;;6.50;;
5499;SDS011;2772;42.700;23.304;2023-08-21T10:20:48;9.97;;;7.13;;
5499;SDS011;2772;42.700;23.304;2023-08-21T10:23:26;7.90;;;7.20;;
5499;SDS011;2772;42.700;23.304;2023-08-21T10:25:54;9.13;;;6.47;;
5499;SDS011;2772;42.700;23.304;2023-08-21T10:28:22;7.60;;;6.83;;
5499;SDS011;2772;42.700;23.304;2023-08-21T10:30:50;7.40;;;6.60;;
5499;SDS011;2772;42.700;23.304;2023-08-21T10:33:17;8.10;;;6.63;;
5499;SDS011;2772;42.700;23.304;2023-08-21T10:36:13;17.10;;;6.67;;
5499;SDS011;2772;42.700;23.304;2023-08-21T10:41:26;9.60;;;7.10;;
5499;SDS011;2772;42.700;23.304;2023-08-21T10:43:52;7.13;;;6.37;;
5499;SDS011;2772;42.700;23.304;2023-08-21T10:46:21;8.23;;;6.23;;
5499;SDS011;2772;42.700;23.304;2023-08-21T10:48:48;9.77;;;6.30;;
5499;SDS011;2772;42.700;23.304;2023-08-21T10:51:15;8.00;;;6.23;;
5499;SDS011;2772;42.700;23.304;2023-08-21T10:53:43;9.70;;;6.77;;
5499;SDS011;2772;42.700;23.304;2023-08-21T10:56:10;6.57;;;6.07;;
5499;SDS011;2772;42.700;23.304;2023-08-21T10:58:38;11.10;;;6.70;;
5499;SDS011;2772;42.700;23.304;2023-08-21T11:01:07;7.07;;;6.33;;
5499;SDS011;2772;42.700;23.304;2023-08-21T11:03:35;6.60;;;6.00;;
5499;SDS011;2772;42.700;23.304;2023-08-21T11:06:05;6.57;;;5.90;;
5499;SDS011;2772;42.700;23.304;2023-08-21T11:08:33;11.03;;;6.97;;
5499;SDS011;2772;42.700;23.304;2023-08-21T11:11:00;9.67;;;6.00;;
5499;SDS011;2772;42.700;23.304;2023-08-21T11:13:28;6.50;;;5.90;;
5499;SDS011;2772;42.700;23.304;2023-08-21T11:15:58;11.17;;;6.33;;
5499;SDS011;2772;42.700;23.304;2023-08-21T11:18:30;7.60;;;6.20;;
5499;SDS011;2772;42.700;23.304;2023-08-21T11:21:06;6.20;;;5.70;;
5499;SDS011;2772;42.700;23.304;2023-08-21T11:23:35;7.60;;;6.37;;
5499;SDS011;2772;42.700;23.304;2023-08-21T11:26:03;9.50;;;6.23;;
5499;SDS011;2772;42.700;23.304;2023-08-21T11:28:31;6.80;;;6.30;;
5499;SDS011;2772;42.700;23.304;2023-08-21T11:30:58;18.83;;;5.80;;
5499;SDS011;2772;42.700;23.304;2023-08-21T11:33:25;12.70;;;6.00;;
5499;SDS011;2772;42.700;23.304;2023-08-21T11:35:53;6.30;;;5.80;;
5499;SDS011;2772;42.700;23.304;2023-08-21T11:38:24;6.93;;;6.33;;
5499;SDS011;2772;42.700;23.304;2023-08-21T11:40:55;9.63;;;6.53;;
5499;SDS011;2772;42.700;23.304;2023-08-21T11:43:33;16.43;;;6.60;;
5499;SDS011;2772;42.700;23.304;2023-08-21T11:46:01;8.10;;;5.63;;
5499;SDS011;2772;42.700;23.304;2023-08-21T11:48:28;6.70;;;6.10;;
5499;SDS011;2772;42.700;23.304;2023-08-21T11:50:56;6.73;;;6.00;;
5499;SDS011;2772;42.700;23.304;2023-08-21T11:53:31;8.77;;;5.90;;
5499;SDS011;2772;42.700;23.304;2023-08-21T11:56:00;6.03;;;5.53;;
5499;SDS011;2772;42.700;23.304;2023-08-21T11:58:27;10.37;;;5.87;;
5499;SDS011;2772;42.700;23.304;2023-08-21T12:00:54;6.73;;;6.07;;
5499;SDS011;2772;42.700;23.304;2023-08-21T12:03:20;14.73;;;5.83;;
5499;SDS011;2772;42.700;23.304;2023-08-21T12:05:47;7.07;;;6.00;;
5499;SDS011;2772;42.700;23.304;2023-08-21T12:08:14;6.93;;;5.80;;
5499;SDS011;2772;42.700;23.304;2023-08-21T12:10:42;8.07;;;6.47;;
5499;SDS011;2772;42.700;23.304;2023-08-21T12:13:09;6.40;;;5.60;;
5499;SDS011;2772;42.700;23.304;2023-08-21T12:15:35;7.57;;;5.90;;
5499;SDS011;2772;42.700;23.304;2023-08-21T12:18:03;12.70;;;5.90;;
5499;SDS011;2772;42.700;23.304;2023-08-21T12:20:30;7.10;;;6.40;;
5499;SDS011;2772;42.700;23.304;2023-08-21T12:22:57;7.50;;;6.03;;
5499;SDS011;2772;42.700;23.304;2023-08-21T12:25:25;8.97;;;6.57;;
5499;SDS011;2772;42.700;23.304;2023-08-21T12:27:54;9.30;;;5.90;;
5499;SDS011;2772;42.700;23.304;2023-08-21T12:30:20;8.07;;;6.10;;
5499;SDS011;2772;42.700;23.304;2023-08-21T12:32:47;6.70;;;6.13;;
5499;SDS011;2772;42.700;23.304;2023-08-21T12:35:14;7.60;;;6.23;;
5499;SDS011;2772;42.700;23.304;2023-08-21T12:37:41;8.97;;;6.30;;
5499;SDS011;2772;42.700;23.304;2023-08-21T12:40:08;6.50;;;5.90;;
5499;SDS011;2772;42.700;23.304;2023-08-21T12:42:35;7.20;;;6.00;;
5499;SDS011;2772;42.700;23.304;2023-08-21T12:45:03;7.10;;;6.40;;
5499;SDS011;2772;42.700;23.304;2023-08-21T12:47:31;7.77;;;6.60;;
5499;SDS011;2772;42.700;23.304;2023-08-21T12:49:58;6.57;;;6.07;;
5499;SDS011;2772;42.700;23.304;2023-08-21T12:52:25;6.40;;;5.97;;
5499;SDS011;2772;42.700;23.304;2023-08-21T12:54:51;15.17;;;5.93;;
5499;SDS011;2772;42.700;23.304;2023-08-21T12:57:18;16.97;;;5.80;;
5499;SDS011;2772;42.700;23.304;2023-08-21T12:59:45;5.97;;;5.53;;
5499;SDS011;2772;42.700;23.304;2023-08-21T13:02:13;9.30;;;5.90;;
5499;SDS011;2772;42.700;23.304;2023-08-21T13:04:40;6.23;;;5.63;;
5499;SDS011;2772;42.700;23.304;2023-08-21T13:07:06;6.63;;;5.90;;
5499;SDS011;2772;42.700;23.304;2023-08-21T13:09:33;7.40;;;6.70;;
5499;SDS011;2772;42.700;23.304;2023-08-21T13:12:00;6.83;;;6.20;;
5499;SDS011;2772;42.700;23.304;2023-08-21T13:14:26;8.80;;;6.23;;
5499;SDS011;2772;42.700;23.304;2023-08-21T13:16:53;10.00;;;6.93;;
5499;SDS011;2772;42.700;23.304;2023-08-21T13:19:21;8.40;;;6.60;;
5499;SDS011;2772;42.700;23.304;2023-08-21T13:21:48;7.77;;;6.97;;
5499;SDS011;2772;42.700;23.304;2023-08-21T13:24:15;8.43;;;6.37;;
5499;SDS011;2772;42.700;23.304;2023-08-21T13:26:41;11.90;;;7.00;;
5499;SDS011;2772;42.700;23.304;2023-08-21T13:29:08;6.20;;;5.80;;
5499;SDS011;2772;42.700;23.304;2023-08-21T13:31:35;7.30;;;5.67;;
5499;SDS011;2772;42.700;23.304;2023-08-21T13:34:02;6.43;;;5.80;;
5499;SDS011;2772;42.700;23.304;2023-08-21T13:36:30;9.80;;;6.90;;
5499;SDS011;2772;42.700;23.304;2023-08-21T13:38:57;12.27;;;6.73;;
5499;SDS011;2772;42.700;23.304;2023-08-21T13:41:24;14.23;;;5.80;;
5499;SDS011;2772;42.700;23.304;2023-08-21T13:43:50;9.83;;;6.30;;
5499;SDS011;2772;42.700;23.304;2023-08-21T13:46:17;7.07;;;6.37;;
5499;SDS011;2772;42.700;23.304;2023-08-21T13:48:45;6.37;;;5.97;;
5499;SDS011;2772;42.700;23.304;2023-08-21T13:51:12;6.90;;;6.23;;
5499;SDS011;2772;42.700;23.304;2023-08-21T13:53:40;7.07;;;6.10;;
5499;SDS011;2772;42.700;23.304;2023-08-21T13:56:07;6.70;;;5.47;;
5499;SDS011;2772;42.700;23.304;2023-08-21T13:58:33;6.53;;;5.70;;
5499;SDS011;2772;42.700;23.304;2023-08-21T14:01:00;5.90;;;5.50;;
5499;SDS011;2772;42.700;23.304;2023-08-21T14:03:27;8.67;;;6.43;;
5499;SDS011;2772;42.700;23.304;2023-08-21T14:05:53;14.10;;;6.03;;
5499;SDS011;2772;42.700;23.304;2023-08-21T14:08:20;8.50;;;5.23;;
5499;SDS011;2772;42.700;23.304;2023-08-21T14:10:48;7.03;;;6.43;;
5499;SDS011;2772;42.700;23.304;2023-08-21T14:13:15;6.73;;;6.00;;
5499;SDS011;2772;42.700;23.304;2023-08-21T14:15:42;6.27;;;5.67;;
5499;SDS011;2772;42.700;23.304;2023-08-21T14:18:09;11.13;;;6.57;;
5499;SDS011;2772;42.700;23.304;2023-08-21T14:20:35;6.57;;;6.10;;
5499;SDS011;2772;42.700;23.304;2023-08-21T14:23:03;6.83;;;6.37;;
5499;SDS011;2772;42.700;23.304;2023-08-21T14:25:30;12.60;;;6.10;;
5499;SDS011;2772;42.700;23.304;2023-08-21T14:27:58;7.10;;;5.90;;
5499;SDS011;2772;42.700;23.304;2023-08-21T14:30:25;11.60;;;6.50;;
5499;SDS011;2772;42.700;23.304;2023-08-21T14:32:52;8.60;;;5.97;;
5499;SDS011;2772;42.700;23.304;2023-08-21T14:35:19;6.77;;;6.07;;
5499;SDS011;2772;42.700;23.304;2023-08-21T14:37:46;9.73;;;6.20;;
5499;SDS011;2772;42.700;23.304;2023-08-21T14:40:12;6.40;;;5.80;;
5499;SDS011;2772;42.700;23.304;2023-08-21T14:42:40;6.90;;;6.30;;
5499;SDS011;2772;42.700;23.304;2023-08-21T14:45:09;6.50;;;6.00;;
5499;SDS011;2772;42.700;23.304;2023-08-21T14:47:36;9.00;;;5.90;;
5499;SDS011;2772;42.700;23.304;2023-08-21T14:50:03;10.00;;;5.90;;
5499;SDS011;2772;42.700;23.304;2023-08-21T14:52:31;7.07;;;6.30;;